Tallega, Kentucky
Current Conditions -  °F | °C
As of 11:06 PM on Thursday 27 Nov 2014 (Local Time) from KJKL Reporting Station
Light Snow Light Snow  
Wind Chill: 29°   Ceiling: 1900
Heat Index: 29°   Visibility: 7mi
Dew Point: 23°   Wind: 3mph
Humidity: 78%   Direction: NA
Pressure: 30.35"   Gusts: NA
Location:  37.5908°N, 83.7186°W
Report Text: KJKL 280406Z AUTO VRB03KT 7SM -SN BKN019 OVC039 M02/M05 A3035 RMK AO2 SNB03 P0000 T10171050
Loading
Personal Weather Stations






























Interactive Weather Map New forecast layout! Learn more

10-Day Weather Forecast

Advertisements
Track Severe Weather on mobile